Time;durP1;ratioP1;P1;durP2;ratioP2;P2;SDS_P1;SDS_P2;PMS_P1;PMS_P2;Temp;Humidity;BMP_temperature;BMP_pressure;BME280_temperature;BME280_humidity;BME280_pressure;Samples;Min_cycle;Max_cycle;Signal;HPM_P1;HPM_P2
2023/09/10 00:01:12;;;;;;;14.90;6.45;;;;;;;17.62;61.84;99742.16;4973475;28;20427;-72
2023/09/10 00:03:38;;;;;;;10.77;5.30;;;;;;;17.67;61.26;99738.19;4976513;28;20495;-72
2023/09/10 00:06:05;;;;;;;7.63;5.20;;;;;;;17.59;61.60;99742.91;4990383;28;20479;-72
2023/09/10 00:08:31;;;;;;;8.73;5.32;;;;;;;17.44;62.10;99739.00;4991670;28;20466;-71
2023/09/10 00:10:57;;;;;;;11.25;5.70;;;;;;;17.37;62.31;99736.03;4974631;28;20034;-72
2023/09/10 00:13:23;;;;;;;13.63;5.43;;;;;;;16.95;63.37;99732.78;4986952;28;20097;-72
2023/09/10 00:15:50;;;;;;;11.02;5.18;;;;;;;16.87;64.16;99736.63;4992114;28;20041;-71
2023/09/10 00:18:15;;;;;;;8.93;5.05;;;;;;;17.01;63.70;99735.31;4992852;28;20524;-71
2023/09/10 00:20:41;;;;;;;11.15;4.97;;;;;;;16.92;64.09;99733.53;4974764;28;20057;-71
2023/09/10 00:23:06;;;;;;;8.32;4.55;;;;;;;16.75;64.67;99737.63;4989495;28;20495;-71
2023/09/10 00:25:32;;;;;;;8.27;4.68;;;;;;;16.39;65.87;99740.44;4992524;28;20050;-72
2023/09/10 00:27:57;;;;;;;7.03;5.18;;;;;;;16.28;67.01;99745.88;4986259;28;20034;-72
2023/09/10 00:30:23;;;;;;;7.78;4.95;;;;;;;16.36;66.96;99751.69;4973062;28;20035;-72
2023/09/10 00:32:49;;;;;;;6.60;4.82;;;;;;;16.37;66.56;99742.03;4972688;28;20114;-72
2023/09/10 00:35:15;;;;;;;6.40;4.43;;;;;;;16.13;67.27;99743.91;4992256;28;20109;-72
2023/09/10 00:37:40;;;;;;;14.85;5.30;;;;;;;16.20;67.05;99752.50;4974688;28;20042;-71
2023/09/10 00:40:07;;;;;;;6.00;4.78;;;;;;;15.79;67.93;99751.88;4989974;28;20079;-72
2023/09/10 00:42:33;;;;;;;5.25;4.05;;;;;;;16.13;67.21;99746.72;4992129;28;20026;-72
2023/09/10 00:44:58;;;;;;;5.65;3.20;;;;;;;16.21;66.99;99742.06;4991518;28;20541;-71
2023/09/10 00:47:24;;;;;;;6.10;4.18;;;;;;;16.24;66.22;99739.31;4990851;28;20478;-72
2023/09/10 00:49:49;;;;;;;5.47;3.80;;;;;;;15.97;66.35;99741.09;4992151;28;20053;-71
2023/09/10 00:52:16;;;;;;;6.13;4.25;;;;;;;15.61;67.96;99734.50;4991048;28;20084;-72
2023/09/10 00:54:42;;;;;;;6.82;3.85;;;;;;;15.71;66.84;99723.50;4974576;28;20038;-71
2023/09/10 00:57:07;;;;;;;7.93;3.90;;;;;;;15.50;67.53;99728.56;4988112;28;20035;-71
2023/09/10 00:59:34;;;;;;;6.22;3.50;;;;;;;15.47;67.88;99738.59;4972732;28;20035;-71
2023/09/10 01:01:59;;;;;;;5.18;3.22;;;;;;;15.75;66.95;99732.06;4979468;28;20510;-71
2023/09/10 01:04:25;;;;;;;6.00;3.55;;;;;;;16.00;66.50;99731.88;4990966;28;20026;-72
2023/09/10 01:06:51;;;;;;;9.57;3.90;;;;;;;15.97;66.83;99735.44;4992016;28;20105;-72
2023/09/10 01:09:17;;;;;;;7.55;3.90;;;;;;;15.97;67.64;99741.09;4989751;28;20048;-72
2023/09/10 01:12:08;;;;;;;6.07;3.80;;;;;;;16.06;67.82;99743.72;4991709;28;20018;-72
2023/09/10 01:14:41;;;;;;;6.93;4.45;;;;;;;16.07;67.84;99746.19;4991884;28;20427;-71
2023/09/10 01:17:14;;;;;;;7.55;4.47;;;;;;;16.10;67.65;99744.59;4991156;28;20424;-72
2023/09/10 01:19:51;;;;;;;24.15;3.63;;;;;;;15.76;69.00;99736.50;4990284;28;20344;-71
2023/09/10 01:22:39;;;;;;;11.52;4.53;;;;;;;15.65;69.53;99733.44;4981876;28;20034;-71
2023/09/10 01:25:05;;;;;;;13.07;5.50;;;;;;;15.68;69.74;99734.69;4981195;28;20030;-71
2023/09/10 01:27:31;;;;;;;6.57;4.75;;;;;;;15.80;69.08;99748.69;4991722;28;20027;-72
2023/09/10 01:29:57;;;;;;;11.10;4.38;;;;;;;15.63;69.71;99732.13;4991048;28;20034;-72
2023/09/10 01:32:29;;;;;;;6.72;4.10;;;;;;;15.73;69.52;99732.41;4990897;28;20027;-71
2023/09/10 01:35:07;;;;;;;5.53;4.05;;;;;;;15.73;69.92;99735.22;4977768;28;20034;-72
2023/09/10 01:37:40;;;;;;;10.35;4.97;;;;;;;15.45;71.34;99732.50;4988738;28;20124;-72
2023/09/10 01:40:09;;;;;;;12.80;4.30;;;;;;;15.27;72.11;99718.75;4990582;28;20121;-71
2023/09/10 01:42:35;;;;;;;7.43;4.80;;;;;;;15.30;72.10;99728.47;4990096;28;20404;-71
2023/09/10 01:45:03;;;;;;;7.30;3.90;;;;;;;15.19;72.42;99730.97;4977049;28;20105;-71
2023/09/10 01:47:28;;;;;;;6.93;4.68;;;;;;;15.24;71.78;99727.09;4972038;28;20030;-71
2023/09/10 01:49:55;;;;;;;5.20;4.03;;;;;;;15.40;71.70;99732.75;4972179;28;20034;-71
2023/09/10 01:52:20;;;;;;;13.48;4.78;;;;;;;15.44;71.27;99728.03;4960469;28;20092;-71
2023/09/10 01:54:46;;;;;;;8.75;4.00;;;;;;;15.33;71.70;99735.41;4995233;28;20030;-72
2023/09/10 01:57:12;;;;;;;6.50;3.83;;;;;;;15.08;72.48;99719.44;4994449;28;20031;-71
2023/09/10 01:59:37;;;;;;;9.48;4.13;;;;;;;15.08;73.02;99727.88;4995261;28;20030;-71
2023/09/10 02:02:03;;;;;;;7.63;4.90;;;;;;;14.98;73.46;99720.78;4995207;28;20061;-71
2023/09/10 02:04:28;;;;;;;7.95;4.82;;;;;;;14.89;73.87;99725.72;4988718;28;20053;-71
2023/09/10 02:06:54;;;;;;;6.55;4.93;;;;;;;14.87;73.95;99723.25;4975672;28;20034;-71
2023/09/10 02:09:19;;;;;;;14.02;4.70;;;;;;;14.83;73.86;99721.53;4993477;28;20033;-72
2023/09/10 02:11:45;;;;;;;11.73;5.03;;;;;;;14.74;74.55;99719.69;4993985;28;20022;-71
2023/09/10 02:14:10;;;;;;;7.32;4.65;;;;;;;14.51;75.69;99718.56;4995147;28;20030;-71
2023/09/10 02:16:35;;;;;;;11.65;4.88;;;;;;;14.39;76.36;99720.22;4994052;28;20413;-71
2023/09/10 02:19:03;;;;;;;9.82;4.57;;;;;;;14.56;76.33;99721.94;4994414;28;20026;-71
2023/09/10 02:21:28;;;;;;;12.13;5.00;;;;;;;14.66;75.92;99715.00;4975477;28;20034;-71
2023/09/10 02:23:54;;;;;;;7.03;3.88;;;;;;;14.55;76.04;99714.69;4975466;28;20549;-71
2023/09/10 02:26:19;;;;;;;7.57;4.88;;;;;;;14.46;75.95;99714.81;4985318;28;20046;-71
2023/09/10 02:28:45;;;;;;;6.93;5.22;;;;;;;14.35;76.58;99718.47;4994231;28;20053;-71
2023/09/10 02:31:10;;;;;;;11.95;5.65;;;;;;;14.15;76.85;99721.91;4994644;28;20030;-71
2023/09/10 02:33:36;;;;;;;6.75;4.95;;;;;;;14.20;76.62;99718.03;4975997;28;20030;-71
2023/09/10 02:36:02;;;;;;;8.02;4.65;;;;;;;14.41;75.54;99719.84;4975202;28;20027;-71
2023/09/10 02:38:28;;;;;;;6.53;4.43;;;;;;;14.34;75.61;99714.81;4975036;28;20027;-72
2023/09/10 02:40:55;;;;;;;22.17;5.53;;;;;;;14.29;75.66;99727.13;4985014;28;20030;-71
2023/09/10 02:43:20;;;;;;;8.00;4.85;;;;;;;14.26;74.77;99724.25;4992867;28;20026;-72
2023/09/10 02:45:45;;;;;;;11.63;5.55;;;;;;;14.09;75.49;99716.88;4977247;28;20109;-71
2023/09/10 02:48:11;;;;;;;9.07;4.70;;;;;;;14.06;75.21;99723.19;4974887;28;20038;-71
2023/09/10 02:50:36;;;;;;;7.50;3.88;;;;;;;14.24;74.34;99726.56;4975034;28;20075;-71
2023/09/10 02:53:02;;;;;;;6.40;4.10;;;;;;;14.34;73.57;99714.03;4983569;28;20113;-71
2023/09/10 02:55:28;;;;;;;5.80;4.43;;;;;;;14.28;73.62;99703.00;4994118;28;20026;-72
2023/09/10 02:57:53;;;;;;;9.70;4.90;;;;;;;14.41;73.77;99714.22;4993405;28;20038;-71
2023/09/10 03:00:25;;;;;;;6.68;4.47;;;;;;;14.44;73.90;99719.16;4991265;28;20044;-72
2023/09/10 03:02:55;;;;;;;5.53;3.90;;;;;;;14.39;73.96;99720.22;4993894;28;20168;-71
2023/09/10 03:05:20;;;;;;;6.00;4.20;;;;;;;14.21;74.71;99725.28;4979914;28;20042;-71
2023/09/10 03:07:46;;;;;;;9.40;3.90;;;;;;;14.29;74.30;99729.16;4990039;28;20042;-71
2023/09/10 03:10:12;;;;;;;7.68;4.18;;;;;;;14.45;73.65;99732.06;4993609;28;20030;-71
2023/09/10 03:12:37;;;;;;;6.28;4.15;;;;;;;14.49;73.69;99729.34;4993938;28;20042;-71
2023/09/10 03:15:03;;;;;;;7.72;4.25;;;;;;;14.44;74.24;99731.22;4992811;28;20499;-71
2023/09/10 03:17:28;;;;;;;6.40;4.10;;;;;;;14.28;74.80;99733.16;4992581;28;20109;-71
2023/09/10 03:19:54;;;;;;;6.97;3.90;;;;;;;14.42;74.54;99739.22;4993627;28;20054;-71
2023/09/10 03:22:19;;;;;;;11.93;5.15;;;;;;;14.60;73.67;99733.31;4973050;28;20492;-72
2023/09/10 03:24:45;;;;;;;5.85;3.90;;;;;;;14.64;73.31;99731.41;4977619;28;20495;-72
2023/09/10 03:27:10;;;;;;;7.32;4.32;;;;;;;14.53;73.80;99730.28;4992852;28;20077;-71
2023/09/10 03:29:36;;;;;;;6.00;4.38;;;;;;;14.32;74.58;99737.72;4992569;28;20105;-71
2023/09/10 03:32:04;;;;;;;7.55;4.38;;;;;;;14.25;74.86;99731.03;4977318;28;20034;-71
2023/09/10 03:34:31;;;;;;;6.22;4.45;;;;;;;14.31;74.52;99727.63;4974227;28;20483;-71
2023/09/10 03:36:57;;;;;;;7.88;4.40;;;;;;;14.20;74.89;99736.88;4974100;28;20034;-71
2023/09/10 03:39:22;;;;;;;6.70;4.25;;;;;;;14.07;75.61;99745.34;4983945;28;20042;-71
2023/09/10 03:41:48;;;;;;;8.63;4.20;;;;;;;14.23;74.95;99730.56;4993293;28;20479;-71
2023/09/10 03:44:13;;;;;;;15.15;5.43;;;;;;;14.20;75.11;99736.88;4992621;28;20415;-71
2023/09/10 03:46:39;;;;;;;22.60;11.30;;;;;;;14.16;75.71;99742.41;4992270;28;20218;-71
2023/09/10 03:49:04;;;;;;;35.88;15.32;;;;;;;14.15;75.96;99737.94;4973404;28;20038;-72
2023/09/10 03:51:30;;;;;;;33.60;14.55;;;;;;;14.17;75.92;99744.03;4979893;28;20527;-71
2023/09/10 03:53:55;;;;;;;36.30;14.05;;;;;;;14.10;75.70;99744.63;4975136;28;20030;-71
2023/09/10 03:56:23;;;;;;;16.80;7.82;;;;;;;13.98;75.85;99742.66;4982991;28;20042;-71
2023/09/10 03:58:48;;;;;;;14.50;5.40;;;;;;;13.76;76.67;99744.75;4973451;28;20530;-71
2023/09/10 04:01:14;;;;;;;7.40;4.63;;;;;;;13.73;77.43;99745.47;4973580;28;20035;-72
2023/09/10 04:03:39;;;;;;;15.77;5.75;;;;;;;13.68;77.95;99742.84;4985567;28;20042;-71
2023/09/10 04:06:05;;;;;;;11.23;4.60;;;;;;;13.64;77.95;99749.56;4992907;28;20026;-71
2023/09/10 04:08:30;;;;;;;10.15;5.40;;;;;;;13.66;78.16;99748.00;4976332;28;20093;-72
2023/09/10 04:10:56;;;;;;;8.55;4.60;;;;;;;13.55;77.77;99744.84;4988496;28;20478;-73
2023/09/10 04:13:21;;;;;;;8.32;4.85;;;;;;;13.70;76.80;99742.53;4991638;28;20030;-72
2023/09/10 04:15:46;;;;;;;12.05;4.90;;;;;;;13.62;76.33;99742.25;4979456;28;20039;-73
2023/09/10 04:18:12;;;;;;;12.02;5.30;;;;;;;13.69;75.86;99750.13;4986094;28;20034;-71
2023/09/10 04:20:37;;;;;;;16.25;5.20;;;;;;;13.68;75.51;99742.84;4992766;28;20026;-72
2023/09/10 04:23:03;;;;;;;9.00;4.22;;;;;;;13.64;75.78;99750.34;4992702;28;20037;-70
2023/09/10 04:25:28;;;;;;;33.45;7.22;;;;;;;13.50;75.52;99745.06;4992674;28;20050;-71
2023/09/10 04:27:54;;;;;;;15.48;4.13;;;;;;;13.69;75.71;99752.13;4990388;28;20030;-72
2023/09/10 04:30:19;;;;;;;7.30;4.38;;;;;;;13.69;75.23;99761.34;4982513;28;20470;-72
2023/09/10 04:32:45;;;;;;;32.78;5.05;;;;;;;13.60;76.35;99769.09;4991230;28;20026;-72
2023/09/10 04:35:12;;;;;;;10.18;4.50;;;;;;;13.54;76.54;99757.25;4992496;28;20044;-72
2023/09/10 04:37:38;;;;;;;7.97;4.07;;;;;;;13.69;75.89;99764.16;4992363;28;20029;-72
2023/09/10 04:40:06;;;;;;;8.20;4.10;;;;;;;13.85;75.47;99761.50;4991658;28;20117;-73
2023/09/10 04:42:32;;;;;;;7.60;4.45;;;;;;;13.82;75.40;99770.63;4991837;28;20057;-72
2023/09/10 04:44:57;;;;;;;18.83;4.93;;;;;;;13.98;75.26;99769.94;4973729;28;20561;-72
2023/09/10 04:47:23;;;;;;;11.07;4.85;;;;;;;14.06;74.70;99769.00;4972410;28;20030;-73
2023/09/10 04:49:48;;;;;;;12.48;4.40;;;;;;;14.01;75.35;99769.25;4983450;28;20510;-72
2023/09/10 04:52:15;;;;;;;8.43;5.05;;;;;;;14.00;75.14;99765.63;4991703;28;20495;-73
2023/09/10 04:54:41;;;;;;;13.80;6.35;;;;;;;14.16;74.46;99756.47;4991481;28;20041;-72
2023/09/10 04:57:07;;;;;;;9.93;4.43;;;;;;;14.44;73.82;99759.38;4987677;28;20411;-72
2023/09/10 04:59:33;;;;;;;7.53;4.82;;;;;;;14.56;72.57;99752.06;4976651;28;20034;-72
2023/09/10 05:02:00;;;;;;;17.63;9.60;;;;;;;14.49;73.23;99751.88;4980961;28;20037;-72
2023/09/10 05:04:25;;;;;;;19.20;10.10;;;;;;;14.68;72.22;99760.50;4972644;28;20484;-72
2023/09/10 05:06:52;;;;;;;15.65;7.00;;;;;;;14.77;71.11;99753.94;4974589;28;20085;-73
2023/09/10 05:09:17;;;;;;;13.23;6.25;;;;;;;14.90;70.87;99757.50;4981327;28;20026;-73
2023/09/10 05:11:43;;;;;;;11.57;5.95;;;;;;;15.02;68.99;99754.66;4980923;28;20163;-72
2023/09/10 05:14:08;;;;;;;13.77;5.28;;;;;;;15.08;68.42;99749.56;4979809;28;20026;-72
2023/09/10 05:16:34;;;;;;;12.82;6.35;;;;;;;15.22;68.12;99758.47;4990976;28;20030;-72
2023/09/10 05:18:59;;;;;;;17.88;5.53;;;;;;;15.41;67.43;99763.41;4972105;28;20030;-73
2023/09/10 05:21:25;;;;;;;10.32;6.75;;;;;;;15.53;67.27;99762.50;4989449;28;20038;-73
2023/09/10 05:23:50;;;;;;;5.65;4.30;;;;;;;15.66;65.78;99753.97;4989360;28;20030;-72
2023/09/10 05:26:16;;;;;;;16.17;6.30;;;;;;;15.93;64.67;99762.75;4988272;28;20058;-73
2023/09/10 05:28:41;;;;;;;12.50;5.53;;;;;;;15.90;64.37;99766.28;4988357;28;20511;-73
2023/09/10 05:31:09;;;;;;;13.57;4.75;;;;;;;16.05;63.42;99768.28;4961600;28;20033;-73
2023/09/10 05:33:35;;;;;;;24.50;4.55;;;;;;;15.96;63.61;99762.00;4985904;28;20176;-72
2023/09/10 05:36:01;;;;;;;13.70;3.75;;;;;;;15.91;63.01;99765.94;4983256;28;20492;-73
2023/09/10 05:38:27;;;;;;;5.32;3.72;;;;;;;15.93;62.54;99762.75;4981048;28;20041;-73
2023/09/10 05:40:53;;;;;;;8.40;3.72;;;;;;;16.13;63.06;99767.28;4987740;28;20422;-72
2023/09/10 05:43:19;;;;;;;9.68;4.65;;;;;;;16.28;63.19;99761.97;4989559;28;20025;-72
2023/09/10 05:45:47;;;;;;;11.75;3.72;;;;;;;16.26;63.01;99761.50;4986415;28;20492;-72
2023/09/10 05:48:13;;;;;;;6.60;3.40;;;;;;;16.40;62.07;99761.84;4987933;28;20045;-72
2023/09/10 05:50:40;;;;;;;6.68;3.88;;;;;;;16.55;61.23;99765.81;4998058;28;20056;-72
2023/09/10 05:53:06;;;;;;;6.43;3.85;;;;;;;16.37;61.80;99762.59;4984292;28;20217;-71
2023/09/10 05:55:31;;;;;;;11.40;4.78;;;;;;;16.62;61.89;99768.00;4986629;28;20030;-71
2023/09/10 05:57:57;;;;;;;9.02;4.85;;;;;;;16.82;59.96;99765.19;4990653;28;20517;-70
2023/09/10 06:00:22;;;;;;;3.45;2.90;;;;;;;16.84;60.37;99760.81;4984449;28;20509;-70
2023/09/10 06:02:49;;;;;;;8.20;4.20;;;;;;;16.98;59.72;99770.78;4977769;28;20046;-70
2023/09/10 06:05:15;;;;;;;10.13;4.00;;;;;;;17.13;58.81;99766.25;4986298;28;20493;-71
2023/09/10 06:07:41;;;;;;;8.55;3.05;;;;;;;17.18;59.79;99768.78;4970438;28;20108;-70
2023/09/10 06:10:09;;;;;;;7.95;3.50;;;;;;;17.48;59.37;99770.97;4982646;28;20078;-69
2023/09/10 06:12:38;;;;;;;7.35;3.55;;;;;;;17.33;57.74;99769.06;4990057;28;20030;-70
2023/09/10 06:15:07;;;;;;;20.10;7.67;;;;;;;17.66;58.30;99773.34;4991335;28;20056;-70
2023/09/10 06:17:33;;;;;;;9.10;4.57;;;;;;;17.89;57.59;99781.00;4986789;28;20437;-73
2023/09/10 06:19:59;;;;;;;4.30;3.53;;;;;;;17.77;57.35;99780.00;4972418;28;20068;-72
2023/09/10 06:22:24;;;;;;;5.43;3.55;;;;;;;17.90;56.72;99782.66;4987361;28;20022;-71
2023/09/10 06:24:50;;;;;;;10.45;3.97;;;;;;;17.63;58.01;99776.91;4988292;28;20033;-72
2023/09/10 06:27:15;;;;;;;5.97;3.58;;;;;;;17.67;59.00;99778.59;4988779;28;20097;-71
2023/09/10 06:29:41;;;;;;;7.80;3.88;;;;;;;17.84;57.88;99784.97;4992984;28;20026;-71
2023/09/10 06:32:06;;;;;;;5.35;2.90;;;;;;;17.91;57.45;99776.59;4989620;28;20101;-71
2023/09/10 06:34:32;;;;;;;6.55;3.47;;;;;;;18.04;58.02;99785.75;4991563;28;20105;-72
2023/09/10 06:36:59;;;;;;;7.05;3.72;;;;;;;18.09;57.82;99782.59;4990759;28;20022;-73
2023/09/10 06:39:25;;;;;;;5.60;2.95;;;;;;;18.31;58.54;99791.44;4988828;28;20026;-71
2023/09/10 06:41:53;;;;;;;9.23;3.40;;;;;;;18.54;58.36;99784.91;4994141;28;20509;-72
2023/09/10 06:44:18;;;;;;;7.15;3.70;;;;;;;18.52;57.56;99784.47;4975781;28;20092;-70
2023/09/10 06:46:44;;;;;;;9.90;3.85;;;;;;;18.52;57.57;99790.97;4975295;28;20085;-69
2023/09/10 06:49:10;;;;;;;23.10;5.25;;;;;;;18.22;58.66;99791.69;4992508;28;20030;-71
2023/09/10 06:51:35;;;;;;;7.53;3.22;;;;;;;18.38;57.94;99783.06;4994331;28;20095;-70
2023/09/10 06:54:01;;;;;;;8.57;4.28;;;;;;;18.70;56.96;99781.06;4994478;28;20044;-72
2023/09/10 06:56:26;;;;;;;4.72;3.42;;;;;;;18.69;56.25;99787.94;4994108;28;20034;-71
2023/09/10 06:58:52;;;;;;;11.73;3.80;;;;;;;18.77;57.47;99787.66;4983906;28;20022;-72
2023/09/10 07:01:18;;;;;;;9.48;4.35;;;;;;;19.03;56.27;99788.84;4994889;28;20014;-73
2023/09/10 07:03:53;;;;;;;13.40;3.92;;;;;;;19.29;55.42;99781.47;4989934;28;20034;-74
2023/09/10 07:06:18;;;;;;;15.20;3.50;;;;;;;19.73;54.50;99785.56;4991328;28;20102;-75
2023/09/10 07:08:44;;;;;;;6.35;3.42;;;;;;;19.70;52.89;99780.69;4974626;28;20050;-75
2023/09/10 07:11:09;;;;;;;13.70;3.47;;;;;;;19.88;53.84;99780.03;4974611;28;20019;-74
2023/09/10 07:13:37;;;;;;;8.18;3.85;;;;;;;19.93;53.10;99771.19;4984694;28;20089;-73
2023/09/10 07:16:03;;;;;;;10.48;3.70;;;;;;;19.94;50.97;99769.16;4983229;28;20018;-75
2023/09/10 07:18:35;;;;;;;8.48;3.10;;;;;;;20.45;49.78;99776.88;4972654;28;20026;-72
2023/09/10 07:21:01;;;;;;;5.70;2.97;;;;;;;20.74;48.65;99773.38;4990504;28;20101;-72
2023/09/10 07:23:27;;;;;;;10.23;3.55;;;;;;;20.72;48.13;99770.13;4982273;28;20090;-72
2023/09/10 07:25:53;;;;;;;8.68;4.85;;;;;;;21.01;46.62;99768.28;4973157;28;20058;-72
2023/09/10 07:28:18;;;;;;;8.68;3.75;;;;;;;21.25;45.79;99768.75;4971475;28;20468;-72
2023/09/10 07:30:44;;;;;;;8.63;3.47;;;;;;;21.50;44.95;99770.06;4988301;28;20042;-73
2023/09/10 07:33:09;;;;;;;14.07;3.25;;;;;;;21.66;44.76;99779.06;4989839;28;20034;-72
2023/09/10 07:35:35;;;;;;;7.18;4.05;;;;;;;21.65;44.40;99773.75;4982439;28;20037;-72
2023/09/10 07:38:00;;;;;;;3.47;3.17;;;;;;;21.82;44.69;99777.84;4973476;28;20036;-72
2023/09/10 07:40:25;;;;;;;7.97;3.88;;;;;;;21.96;44.33;99772.19;4978833;28;20077;-72
2023/09/10 07:42:51;;;;;;;20.52;4.82;;;;;;;22.22;44.08;99766.47;4989898;28;20026;-72
2023/09/10 07:45:16;;;;;;;6.38;3.15;;;;;;;22.42;41.93;99769.72;4981699;28;20030;-72
2023/09/10 07:47:42;;;;;;;7.50;3.40;;;;;;;22.42;41.04;99764.00;4985122;28;20041;-72
2023/09/10 07:50:08;;;;;;;6.50;3.38;;;;;;;22.66;38.73;99762.38;4981423;28;20034;-72
2023/09/10 07:52:34;;;;;;;7.93;2.55;;;;;;;22.75;37.11;99761.16;4986739;28;20022;-72
2023/09/10 07:54:59;;;;;;;7.07;3.22;;;;;;;22.94;38.25;99759.84;4987498;28;20146;-72
2023/09/10 07:57:25;;;;;;;9.50;2.80;;;;;;;23.21;38.68;99756.47;4984933;28;20034;-72
2023/09/10 07:59:51;;;;;;;15.65;3.45;;;;;;;23.52;37.82;99760.41;4988981;28;20081;-72
2023/09/10 08:02:17;;;;;;;7.60;2.25;;;;;;;23.51;36.49;99752.25;4972150;28;20535;-72
2023/09/10 08:04:43;;;;;;;4.25;2.42;;;;;;;23.65;37.32;99755.03;4990593;28;20037;-68
2023/09/10 08:07:10;;;;;;;7.90;2.92;;;;;;;23.69;35.32;99752.94;4979568;28;20035;-72
2023/09/10 08:09:36;;;;;;;2.80;2.08;;;;;;;23.46;34.94;99753.50;5002353;28;20050;-71
2023/09/10 08:12:02;;;;;;;6.85;2.38;;;;;;;23.70;34.36;99751.72;4987228;28;20566;-72
2023/09/10 08:14:28;;;;;;;14.82;3.20;;;;;;;23.83;34.54;99756.94;4990004;28;20037;-72
2023/09/10 08:16:53;;;;;;;9.55;2.25;;;;;;;24.15;33.10;99749.34;4989932;28;20042;-70
2023/09/10 08:19:19;;;;;;;9.52;2.95;;;;;;;24.19;32.30;99750.13;4990274;28;20109;-71
2023/09/10 08:21:44;;;;;;;5.80;2.67;;;;;;;24.34;33.11;99756.53;4988068;28;20503;-72
2023/09/10 08:24:09;;;;;;;8.88;2.85;;;;;;;24.64;32.49;99749.28;4986694;28;20117;-72
2023/09/10 08:26:35;;;;;;;3.25;2.40;;;;;;;24.97;33.46;99751.78;4987118;28;20138;-72
2023/09/10 08:29:00;;;;;;;5.22;2.65;;;;;;;25.01;32.02;99759.09;4987954;28;20031;-71
2023/09/10 08:31:26;;;;;;;5.03;2.40;;;;;;;25.10;32.95;99747.13;4987618;28;20037;-71
2023/09/10 08:33:51;;;;;;;5.95;2.95;;;;;;;25.33;32.25;99754.97;4990011;28;20026;-72
2023/09/10 08:36:17;;;;;;;8.32;3.78;;;;;;;25.75;31.54;99754.03;4989456;28;20805;-71
2023/09/10 08:38:42;;;;;;;6.88;3.17;;;;;;;25.92;31.79;99749.25;4985548;28;20820;-71
2023/09/10 08:41:32;;;;;;;9.93;2.63;;;;;;;26.11;30.66;99758.34;4980613;28;20084;-71
2023/09/10 08:43:58;;;;;;;7.47;3.17;;;;;;;25.88;29.96;99760.75;4981908;28;20034;-72
2023/09/10 08:46:30;;;;;;;14.52;12.25;;;;;;;26.06;30.47;99749.00;4988102;28;20667;-72
2023/09/10 08:48:59;;;;;;;8.52;5.57;;;;;;;26.23;28.76;99745.50;4983170;28;20038;-72
2023/09/10 08:51:26;;;;;;;12.20;7.78;;;;;;;26.24;29.10;99747.09;4982522;28;20023;-72
2023/09/10 08:53:56;;;;;;;29.98;25.17;;;;;;;26.40;29.49;99743.53;4989822;28;20038;-72
2023/09/10 08:56:21;;;;;;;8.18;4.25;;;;;;;26.71;30.69;99747.03;4979975;28;20157;-72
2023/09/10 08:58:49;;;;;;;5.10;3.22;;;;;;;26.83;30.36;99750.50;4985499;28;20034;-72
2023/09/10 09:01:15;;;;;;;6.00;2.88;;;;;;;26.94;29.36;99739.66;4970434;28;20100;-72
2023/09/10 09:03:41;;;;;;;8.90;3.38;;;;;;;27.11;30.50;99742.56;4971507;28;20038;-72
2023/09/10 09:06:07;;;;;;;4.65;2.80;;;;;;;27.11;30.48;99740.53;4988204;28;20126;-76
2023/09/10 09:08:36;;;;;;;5.43;3.17;;;;;;;26.95;30.36;99735.53;4987203;28;20038;-72
2023/09/10 09:11:04;;;;;;;6.87;3.27;;;;;;;27.05;30.95;99736.53;4989542;28;20026;-72
2023/09/10 09:13:35;;;;;;;8.85;3.00;;;;;;;26.87;30.62;99739.78;4984626;28;20454;-72
2023/09/10 09:16:02;;;;;;;9.52;3.67;;;;;;;27.14;30.70;99722.41;4977658;28;20042;-70
2023/09/10 09:18:29;;;;;;;6.25;3.22;;;;;;;27.09;31.57;99719.25;4987273;28;20113;-72
2023/09/10 09:21:01;;;;;;;8.23;2.88;;;;;;;27.22;31.07;99716.53;4980604;28;20038;-70
2023/09/10 09:23:36;;;;;;;4.75;3.30;;;;;;;27.30;30.04;99720.81;4986851;28;20035;-69
2023/09/10 09:26:01;;;;;;;9.18;3.33;;;;;;;27.44;29.88;99708.22;4983338;28;20054;-70
2023/09/10 09:28:29;;;;;;;6.55;3.08;;;;;;;27.66;29.31;99720.00;4976908;28;20033;-71
2023/09/10 09:30:54;;;;;;;6.28;3.13;;;;;;;27.80;29.67;99723.78;4987889;28;20038;-71
2023/09/10 09:33:19;;;;;;;7.78;3.63;;;;;;;28.04;28.67;99724.44;4981858;28;20419;-71
2023/09/10 09:35:46;;;;;;;6.65;3.20;;;;;;;27.87;27.78;99710.09;4977828;28;20031;-71
2023/09/10 09:38:15;;;;;;;7.32;3.85;;;;;;;27.93;29.03;99710.31;4976805;28;20496;-71
2023/09/10 09:40:41;;;;;;;9.13;3.22;;;;;;;28.24;28.65;99706.31;4986574;28;20550;-72
2023/09/10 09:43:08;;;;;;;6.45;3.58;;;;;;;28.09;28.87;99708.72;4980603;28;20038;-71
2023/09/10 09:45:37;;;;;;;10.07;3.78;;;;;;;28.29;29.36;99702.88;4988567;28;20042;-70
2023/09/10 09:48:03;;;;;;;7.50;4.07;;;;;;;27.99;29.54;99707.72;4988859;28;20038;-70
2023/09/10 09:50:29;;;;;;;5.57;3.25;;;;;;;28.18;29.31;99691.66;4978786;28;20453;-72
2023/09/10 09:52:55;;;;;;;8.05;3.42;;;;;;;28.23;28.77;99693.16;4979316;28;20030;-72
2023/09/10 09:55:21;;;;;;;10.77;3.45;;;;;;;28.37;29.11;99691.97;4979278;28;20414;-71
2023/09/10 09:57:47;;;;;;;7.47;3.88;;;;;;;28.47;28.77;99695.81;4984278;28;20045;-72
2023/09/10 10:00:14;;;;;;;6.97;3.55;;;;;;;28.44;28.78;99692.56;4985630;28;20049;-72
2023/09/10 10:02:39;;;;;;;6.03;3.25;;;;;;;28.15;29.03;99686.78;4981840;28;20534;-74
2023/09/10 10:05:07;;;;;;;6.05;3.22;;;;;;;28.22;29.84;99680.88;4988817;28;20523;-74
2023/09/10 10:07:35;;;;;;;15.20;3.83;;;;;;;28.68;28.35;99686.56;4986370;28;20030;-74
2023/09/10 10:10:00;;;;;;;7.97;4.00;;;;;;;28.74;29.33;99686.81;4987420;28;20450;-74
2023/09/10 10:12:27;;;;;;;6.05;3.42;;;;;;;28.60;28.40;99685.19;4986674;28;20041;-74
2023/09/10 10:14:54;;;;;;;4.90;2.75;;;;;;;28.67;28.17;99682.06;5008325;28;20109;-74
2023/09/10 10:17:22;;;;;;;7.00;2.85;;;;;;;28.96;29.60;99675.50;4986853;28;20034;-74
2023/09/10 10:19:50;;;;;;;5.75;3.53;;;;;;;28.99;29.78;99670.88;4989860;28;20499;-74
2023/09/10 10:22:16;;;;;;;6.32;3.10;;;;;;;28.82;28.82;99676.75;4988334;28;20026;-74
2023/09/10 10:24:42;;;;;;;5.57;3.40;;;;;;;29.10;28.06;99670.59;4979717;28;20093;-74
2023/09/10 10:27:08;;;;;;;7.43;3.55;;;;;;;29.22;28.70;99672.66;4989817;28;20046;-74
2023/09/10 10:29:34;;;;;;;13.02;4.90;;;;;;;29.29;28.45;99677.38;4992044;28;20092;-75
2023/09/10 10:32:30;;;;;;;4.28;3.53;;;;;;;29.50;28.67;99669.31;4977456;28;20058;-74
2023/09/10 10:34:59;;;;;;;10.25;3.78;;;;;;;29.33;28.68;99669.44;4980083;28;20038;-74
2023/09/10 10:37:32;;;;;;;6.63;3.38;;;;;;;29.20;28.88;99672.31;4985637;28;20562;-74
2023/09/10 10:40:15;;;;;;;5.68;2.90;;;;;;;29.00;29.12;99661.00;4986160;28;20033;-74
2023/09/10 10:43:12;;;;;;;5.45;3.55;;;;;;;28.75;28.70;99667.50;4987081;28;20041;-74
2023/09/10 10:45:38;;;;;;;7.60;4.13;;;;;;;28.75;28.67;99665.41;4985310;28;20053;-74
2023/09/10 10:48:12;;;;;;;9.55;3.50;;;;;;;29.04;29.35;99658.81;4982467;28;20030;-74
2023/09/10 10:50:38;;;;;;;6.38;3.50;;;;;;;29.02;28.48;99663.41;4984810;28;20661;-75
2023/09/10 10:53:19;;;;;;;9.18;3.90;;;;;;;29.19;29.24;99659.16;4990343;28;20026;-74
2023/09/10 10:55:47;;;;;;;8.77;4.25;;;;;;;29.20;28.57;99659.97;4969556;28;20044;-74
2023/09/10 10:58:14;;;;;;;10.07;3.28;;;;;;;29.06;28.88;99653.41;4989129;28;20105;-74
2023/09/10 11:00:39;;;;;;;5.05;3.38;;;;;;;29.07;28.08;99648.44;4988653;28;20558;-74
2023/09/10 11:03:15;;;;;;;5.97;3.47;;;;;;;29.28;28.77;99646.97;4991418;28;20027;-74
2023/09/10 11:05:53;;;;;;;9.63;4.07;;;;;;;29.34;28.49;99645.13;4967217;28;20096;-70
2023/09/10 11:08:30;;;;;;;7.93;2.95;;;;;;;29.63;29.30;99643.41;4981296;28;20037;-77
2023/09/10 11:10:56;;;;;;;6.95;3.65;;;;;;;29.58;29.41;99630.38;4990407;28;20160;-76
2023/09/10 11:13:24;;;;;;;9.63;3.78;;;;;;;29.36;28.42;99633.16;4990050;28;20022;-76
2023/09/10 11:16:05;;;;;;;6.57;3.38;;;;;;;29.05;29.31;99636.59;4989319;28;20026;-76
2023/09/10 11:18:37;;;;;;;8.63;4.47;;;;;;;28.78;28.93;99635.72;4989743;28;20530;-76
2023/09/10 11:21:16;;;;;;;6.25;3.47;;;;;;;29.04;28.89;99635.78;4994404;28;20080;-76
2023/09/10 11:23:56;;;;;;;5.20;3.77;;;;;;;28.86;29.31;99630.59;4985666;28;20085;-76
2023/09/10 11:26:21;;;;;;;4.57;3.92;;;;;;;28.89;29.88;99623.09;4988514;28;20054;-76
2023/09/10 11:28:53;;;;;;;5.90;3.47;;;;;;;29.21;29.04;99630.75;4987217;28;20046;-76
2023/09/10 11:31:41;;;;;;;11.40;4.03;;;;;;;29.53;27.88;99617.34;4987948;28;20038;-76